Time;durP1;ratioP1;P1;durP2;ratioP2;P2;SDS_P1;SDS_P2;PMS_P1;PMS_P2;Temp;Humidity;BMP_temperature;BMP_pressure;BME280_temperature;BME280_humidity;BME280_pressure;Samples;Min_cycle;Max_cycle;Signal;HPM_P1;HPM_P2
2021/01/11 12:14:03;;;;;;;22.77;15.48;;;19.50;55.60;;;;;;5102620;27;20516;-81
2021/01/11 12:16:29;;;;;;;23.30;16.20;;;17.80;56.30;;;;;;5118464;28;20209;-79
2021/01/11 12:18:56;;;;;;;17.23;14.77;;;17.70;59.90;;;;;;5075255;27;20440;-81
2021/01/11 12:21:34;;;;;;;19.20;14.60;;;18.30;55.30;;;;;;5055909;28;20428;-86
2021/01/11 12:29:35;;;;;;;27.60;18.80;;;19.60;29.30;;;;;;5087515;27;20534;-69
2021/01/11 12:32:03;;;;;;;21.55;17.70;;;14.00;37.80;;;;;;5063517;28;20445;-65
2021/01/11 12:34:33;;;;;;;22.77;18.60;;;13.60;39.30;;;;;;5092755;28;20236;-65
2021/01/11 12:37:01;;;;;;;25.00;18.25;;;9.90;47.90;;;;;;5100049;28;20547;-65
2021/01/11 12:39:28;;;;;;;33.55;19.38;;;7.30;55.10;;;;;;5113323;28;20216;-65
2021/01/11 12:41:56;;;;;;;21.35;14.80;;;6.00;58.90;;;;;;5113426;28;20429;-65
2021/01/11 12:44:26;;;;;;;14.75;11.40;;;4.90;62.50;;;;;;5109114;28;20299;-65
2021/01/11 12:46:56;;;;;;;15.95;10.05;;;4.20;65.90;;;;;;5101464;28;20205;-64
2021/01/11 12:49:26;;;;;;;17.60;10.75;;;3.40;67.70;;;;;;5113402;28;20232;-65
2021/01/11 12:51:56;;;;;;;16.25;9.15;;;3.00;69.40;;;;;;5092499;27;20586;-65
2021/01/11 12:54:26;;;;;;;14.27;10.00;;;2.80;70.20;;;;;;5089938;28;20258;-65
2021/01/11 12:56:59;;;;;;;13.25;9.18;;;3.00;73.20;;;;;;5075364;28;20221;-65
2021/01/11 12:59:26;;;;;;;13.55;9.68;;;2.20;74.00;;;;;;5113412;28;20286;-65
2021/01/11 13:02:02;;;;;;;19.63;9.27;;;2.10;74.30;;;;;;5103847;28;20545;-65
2021/01/11 13:04:30;;;;;;;15.07;9.90;;;2.00;74.90;;;;;;5103498;28;20260;-64
2021/01/11 13:07:02;;;;;;;16.83;11.20;;;2.10;76.00;;;;;;5107627;28;20208;-65
2021/01/11 13:09:31;;;;;;;15.70;10.70;;;1.70;76.10;;;;;;5092516;28;20234;-65
2021/01/11 13:12:00;;;;;;;22.23;11.15;;;1.80;75.30;;;;;;5092945;28;20407;-64
2021/01/11 13:14:27;;;;;;;14.73;11.20;;;1.50;77.60;;;;;;5092811;28;20206;-64
2021/01/11 13:16:56;;;;;;;13.68;9.68;;;1.60;77.50;;;;;;5092484;28;20562;-64
2021/01/11 13:19:24;;;;;;;14.57;8.60;;;1.70;75.70;;;;;;5088530;28;20237;-64
2021/01/11 13:21:51;;;;;;;19.55;10.32;;;1.70;76.70;;;;;;5092469;28;20233;-65
2021/01/11 13:24:18;;;;;;;17.42;10.63;;;1.90;76.20;;;;;;5095780;28;20208;-64
2021/01/11 13:26:45;;;;;;;13.57;9.65;;;2.40;76.60;;;;;;5092293;28;20598;-64
2021/01/11 13:29:13;;;;;;;12.15;8.85;;;2.90;77.60;;;;;;5092459;28;20287;-64
2021/01/11 13:31:45;;;;;;;16.65;10.63;;;1.60;75.70;;;;;;5091937;28;20217;-64
2021/01/11 13:34:13;;;;;;;13.68;10.15;;;1.70;75.40;;;;;;5092660;28;20248;-63
2021/01/11 13:36:40;;;;;;;18.88;11.43;;;1.80;74.20;;;;;;5092080;28;20206;-65
2021/01/11 13:39:07;;;;;;;15.07;8.75;;;1.80;75.70;;;;;;5098419;28;20203;-65
2021/01/11 13:41:42;;;;;;;18.63;11.20;;;2.30;75.30;;;;;;5087710;28;20560;-64
2021/01/11 13:44:11;;;;;;;16.13;10.05;;;1.80;74.60;;;;;;5084934;28;20602;-65
2021/01/11 13:46:44;;;;;;;18.20;11.57;;;1.70;74.80;;;;;;5094097;28;20326;-64
2021/01/11 13:49:13;;;;;;;12.80;9.82;;;1.70;75.80;;;;;;5095555;28;20297;-64
2021/01/11 13:51:39;;;;;;;16.60;11.05;;;2.00;74.60;;;;;;5092677;28;20206;-64
2021/01/11 13:54:07;;;;;;;15.27;10.00;;;1.90;74.40;;;;;;5095967;28;20396;-65
2021/01/11 13:56:34;;;;;;;16.63;10.95;;;1.90;74.50;;;;;;5096784;28;20424;-65
2021/01/11 13:59:06;;;;;;;16.40;10.57;;;1.80;74.90;;;;;;5095985;28;20230;-65
2021/01/11 14:01:41;;;;;;;17.38;10.95;;;1.70;76.20;;;;;;5092678;28;20206;-65
2021/01/11 14:04:09;;;;;;;15.30;10.18;;;1.60;76.20;;;;;;5090256;28;20206;-65
2021/01/11 14:06:36;;;;;;;18.15;11.32;;;1.70;75.00;;;;;;5089440;28;20487;-65
2021/01/11 14:09:04;;;;;;;17.05;10.90;;;1.70;75.10;;;;;;5079981;28;20234;-65
2021/01/11 14:11:30;;;;;;;20.48;11.60;;;1.70;75.20;;;;;;5081614;28;20207;-66
2021/01/11 14:13:57;;;;;;;16.60;9.73;;;1.60;75.60;;;;;;5093322;28;20249;-64
2021/01/11 14:16:26;;;;;;;18.55;11.35;;;1.20;75.00;;;;;;5078033;28;20187;-64
2021/01/11 14:18:57;;;;;;;19.10;11.48;;;1.80;74.80;;;;;;5078074;28;20211;-65
2021/01/11 14:21:24;;;;;;;15.15;10.63;;;2.00;74.20;;;;;;5078220;28;20198;-65
2021/01/11 14:23:52;;;;;;;18.83;12.57;;;3.00;74.50;;;;;;5081336;28;20195;-64
2021/01/11 14:26:19;;;;;;;16.63;13.13;;;1.90;75.00;;;;;;5078233;28;20218;-64
2021/01/11 14:28:45;;;;;;;20.25;12.13;;;1.70;75.50;;;;;;5090452;28;20459;-66
2021/01/11 14:31:14;;;;;;;20.33;12.75;;;1.60;75.50;;;;;;5084491;28;20206;-67
2021/01/11 14:33:41;;;;;;;23.45;11.82;;;1.90;76.20;;;;;;5086109;28;20273;-67
2021/01/11 14:36:08;;;;;;;21.23;12.95;;;1.50;75.90;;;;;;5086471;28;20199;-68
2021/01/11 14:38:36;;;;;;;21.35;12.68;;;1.40;76.60;;;;;;5090559;28;20565;-68
2021/01/11 14:41:11;;;;;;;21.02;11.50;;;1.30;76.80;;;;;;5084157;28;20195;-67
2021/01/11 14:43:44;;;;;;;20.65;13.23;;;1.30;77.50;;;;;;5090436;28;20206;-66
2021/01/11 14:46:23;;;;;;;21.77;13.50;;;1.30;77.00;;;;;;5087764;28;20421;-66
2021/01/11 14:48:54;;;;;;;23.25;12.77;;;1.20;77.90;;;;;;5094349;28;20232;-67
2021/01/11 14:51:21;;;;;;;24.90;13.73;;;2.50;78.40;;;;;;5090845;28;20214;-66
2021/01/11 14:53:47;;;;;;;24.27;14.63;;;1.10;78.00;;;;;;5078008;28;20448;-66
2021/01/11 14:56:14;;;;;;;21.25;13.27;;;2.20;79.20;;;;;;5077045;28;20225;-67
2021/01/11 14:58:42;;;;;;;24.42;14.50;;;0.80;78.90;;;;;;5076438;28;20218;-67
2021/01/11 15:01:09;;;;;;;25.67;14.52;;;0.90;78.90;;;;;;5075992;28;20203;-67
2021/01/11 15:03:36;;;;;;;18.48;13.57;;;0.90;78.20;;;;;;5075061;28;20230;-67
2021/01/11 15:06:03;;;;;;;32.13;14.73;;;1.00;78.30;;;;;;5075731;28;20206;-68
2021/01/11 15:08:29;;;;;;;21.65;13.38;;;1.10;78.50;;;;;;5074631;28;20231;-67
2021/01/11 15:10:56;;;;;;;24.70;15.88;;;1.00;77.90;;;;;;5075754;28;20249;-67
2021/01/11 15:13:27;;;;;;;22.60;14.55;;;1.20;78.60;;;;;;5074742;28;20211;-68
2021/01/11 15:15:54;;;;;;;27.27;17.05;;;1.10;78.10;;;;;;5070356;28;20202;-68
2021/01/11 15:18:21;;;;;;;38.42;20.95;;;0.90;79.60;;;;;;5073695;28;20199;-68
2021/01/11 15:20:48;;;;;;;32.50;21.33;;;0.90;79.80;;;;;;5060367;28;20195;-68
2021/01/11 15:23:16;;;;;;;42.22;22.88;;;0.80;80.10;;;;;;5067140;28;20218;-68
2021/01/11 15:25:42;;;;;;;45.42;23.23;;;0.70;80.60;;;;;;5076451;28;20207;-68
2021/01/11 15:28:09;;;;;;;35.10;23.13;;;0.50;82.40;;;;;;5066847;28;20230;-68
2021/01/11 15:30:35;;;;;;;31.08;19.95;;;0.40;83.20;;;;;;5076443;28;20227;-69
2021/01/11 15:33:02;;;;;;;39.53;22.48;;;1.40;84.20;;;;;;5075415;28;20215;-68
2021/01/11 15:35:29;;;;;;;36.05;21.20;;;0.40;84.10;;;;;;5069453;28;20220;-67
2021/01/11 15:37:56;;;;;;;36.20;20.10;;;0.40;85.10;;;;;;5058721;28;20200;-67
2021/01/11 15:40:22;;;;;;;35.17;21.58;;;0.40;85.70;;;;;;5058733;28;20476;-68
2021/01/11 15:42:55;;;;;;;33.50;19.58;;;0.40;86.40;;;;;;5057052;28;20203;-68
2021/01/11 15:45:21;;;;;;;40.25;21.90;;;0.30;86.60;;;;;;5057955;28;20203;-67
2021/01/11 15:47:49;;;;;;;40.58;18.33;;;0.30;86.30;;;;;;5059997;28;20227;-67
2021/01/11 15:50:15;;;;;;;35.70;23.00;;;0.60;86.60;;;;;;5076426;28;20203;-69
2021/01/11 15:52:48;;;;;;;40.35;22.30;;;0.20;86.50;;;;;;5076295;28;20211;-68
2021/01/11 15:55:15;;;;;;;37.83;22.17;;;0.60;87.20;;;;;;5076125;28;20210;-68
2021/01/11 15:57:42;;;;;;;52.63;25.85;;;0.20;87.30;;;;;;5066020;28;20203;-68
2021/01/11 16:00:11;;;;;;;43.63;24.48;;;0.20;87.50;;;;;;5060443;28;20234;-67
2021/01/11 16:02:39;;;;;;;47.50;22.63;;;0.00;88.00;;;;;;5056868;28;20529;-68
2021/01/11 16:05:08;;;;;;;38.25;20.15;;;0.00;88.20;;;;;;5057166;28;20212;-68
2021/01/11 16:07:35;;;;;;;42.00;23.10;;;-0.10;88.90;;;;;;5055226;28;20490;-68
2021/01/11 16:10:02;;;;;;;105.60;46.53;;;-0.10;88.90;;;;;;5062406;28;20210;-67
2021/01/11 16:12:30;;;;;;;50.13;28.75;;;-0.10;88.40;;;;;;5058474;28;20215;-69
2021/01/11 16:14:57;;;;;;;48.90;24.95;;;0.80;89.30;;;;;;5059070;28;20413;-68
2021/01/11 16:17:24;;;;;;;38.03;21.85;;;-0.30;89.00;;;;;;5070211;28;20242;-68
2021/01/11 16:19:51;;;;;;;47.10;25.08;;;-0.30;88.50;;;;;;5065027;28;20211;-69
2021/01/11 16:22:17;;;;;;;40.60;24.80;;;-0.50;88.40;;;;;;5069095;28;20202;-68
2021/01/11 16:24:44;;;;;;;40.15;23.38;;;-0.20;88.30;;;;;;5074310;28;20206;-71
2021/01/11 16:27:10;;;;;;;39.83;23.80;;;-0.30;88.40;;;;;;5074687;28;20203;-71
2021/01/11 16:29:37;;;;;;;37.30;21.50;;;-0.40;89.70;;;;;;5075194;28;20297;-73
2021/01/11 16:32:05;;;;;;;40.53;24.83;;;-0.30;89.30;;;;;;5074560;28;20221;-70
2021/01/11 16:34:32;;;;;;;42.92;22.40;;;-0.30;88.20;;;;;;5075345;28;20298;-69
2021/01/11 16:37:00;;;;;;;46.83;27.73;;;-0.30;87.80;;;;;;5073432;28;20203;-68
2021/01/11 16:39:27;;;;;;;37.17;22.70;;;-0.30;87.30;;;;;;5075207;28;20431;-71
2021/01/11 16:41:58;;;;;;;37.95;23.88;;;-0.40;87.10;;;;;;5074154;28;20432;-71
2021/01/11 16:44:26;;;;;;;38.42;21.15;;;-0.40;87.10;;;;;;5074557;28;20202;-71
2021/01/11 16:46:54;;;;;;;35.08;21.35;;;-0.50;87.40;;;;;;5075258;28;20202;-71
2021/01/11 16:49:21;;;;;;;43.58;25.02;;;-0.40;87.10;;;;;;5075482;28;20276;-71
2021/01/11 16:51:48;;;;;;;38.95;25.52;;;-0.60;87.70;;;;;;5074045;28;20207;-70
2021/01/11 16:54:15;;;;;;;61.35;30.90;;;-0.50;87.90;;;;;;5075005;28;20207;-70
2021/01/11 16:56:44;;;;;;;55.10;33.20;;;-0.70;88.80;;;;;;5074988;28;20286;-70
2021/01/11 16:59:14;;;;;;;50.55;30.58;;;-0.70;88.60;;;;;;5074321;28;20223;-70
2021/01/11 17:01:41;;;;;;;56.28;29.42;;;-0.70;88.70;;;;;;5074908;28;20272;-70
2021/01/11 17:04:08;;;;;;;53.47;31.70;;;-0.90;89.70;;;;;;5073755;28;20523;-71
2021/01/11 17:06:35;;;;;;;42.17;23.35;;;-0.80;89.70;;;;;;5074702;28;20437;-70
2021/01/11 17:09:01;;;;;;;48.33;28.77;;;-0.80;89.90;;;;;;5075044;28;20335;-70
2021/01/11 17:11:28;;;;;;;49.38;30.33;;;-0.90;89.50;;;;;;5075415;28;20270;-70
2021/01/11 17:13:55;;;;;;;45.38;29.38;;;-0.90;89.80;;;;;;5066834;28;20394;-70
2021/01/11 17:16:22;;;;;;;57.22;32.83;;;-0.90;89.90;;;;;;5078233;28;20210;-70
2021/01/11 17:18:50;;;;;;;50.47;30.70;;;-0.90;89.70;;;;;;5075130;28;20203;-70
2021/01/11 17:21:24;;;;;;;49.40;29.98;;;-0.80;89.40;;;;;;5079222;28;20208;-71
2021/01/11 17:23:51;;;;;;;48.97;29.02;;;-1.00;90.10;;;;;;5078856;28;20205;-70
2021/01/11 17:26:29;;;;;;;47.35;28.90;;;-1.00;90.00;;;;;;5079293;28;20245;-71
2021/01/11 17:28:57;;;;;;;51.25;31.40;;;-1.00;90.40;;;;;;5078570;28;20245;-70
2021/01/11 17:31:23;;;;;;;44.55;25.90;;;-0.90;90.00;;;;;;5077746;28;20428;-70
2021/01/11 17:33:51;;;;;;;39.03;23.33;;;-1.00;90.10;;;;;;5078890;28;20397;-70
2021/01/11 17:36:22;;;;;;;34.55;22.60;;;-1.10;90.20;;;;;;5078772;28;20203;-70
2021/01/11 17:38:51;;;;;;;40.70;23.80;;;-1.10;90.20;;;;;;5078642;28;20206;-70
2021/01/11 17:41:21;;;;;;;36.20;24.05;;;-1.10;90.10;;;;;;5078585;28;20206;-71
2021/01/11 17:43:49;;;;;;;42.38;25.45;;;-1.00;90.00;;;;;;5079101;28;20450;-71
2021/01/11 17:46:19;;;;;;;45.88;31.92;;;-1.10;90.00;;;;;;5075684;28;20400;-70
2021/01/11 17:48:49;;;;;;;52.92;31.92;;;-1.10;89.70;;;;;;5065669;28;20231;-70
2021/01/11 17:51:16;;;;;;;41.72;28.58;;;-1.10;90.10;;;;;;5077475;28;20211;-70
2021/01/11 17:53:43;;;;;;;37.42;23.33;;;-1.10;89.90;;;;;;5078608;28;20214;-70
2021/01/11 17:56:16;;;;;;;37.88;22.98;;;-1.10;89.60;;;;;;5078908;28;20207;-71
2021/01/11 17:58:45;;;;;;;36.28;22.83;;;-1.10;89.80;;;;;;5091724;28;20213;-71
2021/01/11 18:01:16;;;;;;;36.35;22.90;;;-1.10;90.00;;;;;;5073262;28;20705;-69
2021/01/11 18:03:44;;;;;;;41.78;24.33;;;0.70;90.30;;;;;;5076666;28;20323;-70
2021/01/11 18:06:13;;;;;;;39.40;23.70;;;-1.10;89.80;;;;;;5078213;28;20430;-70
2021/01/11 18:08:40;;;;;;;37.70;25.25;;;-1.00;89.60;;;;;;5070657;28;20538;-69
2021/01/11 18:11:15;;;;;;;44.53;26.27;;;-1.10;89.60;;;;;;5075818;28;20358;-69
2021/01/11 18:13:42;;;;;;;37.33;24.88;;;-1.10;89.80;;;;;;5093457;28;20256;-69
2021/01/11 18:16:08;;;;;;;42.25;26.23;;;-1.20;90.00;;;;;;5078397;28;20238;-69
2021/01/11 18:18:35;;;;;;;37.28;27.48;;;-1.20;90.20;;;;;;5077846;28;20237;-70
2021/01/11 18:21:03;;;;;;;38.60;24.30;;;-1.30;90.20;;;;;;5078050;28;20203;-69
2021/01/11 18:23:29;;;;;;;35.90;22.65;;;-1.20;90.60;;;;;;5077810;28;20539;-70
2021/01/11 18:25:56;;;;;;;32.17;21.98;;;-1.20;90.10;;;;;;5077763;28;20252;-69
2021/01/11 18:28:22;;;;;;;33.72;21.98;;;-1.30;90.40;;;;;;5077887;28;20288;-70
2021/01/11 18:30:49;;;;;;;36.83;24.52;;;0.20;91.00;;;;;;5071339;28;20260;-69
2021/01/11 18:33:15;;;;;;;38.05;24.40;;;-1.30;90.70;;;;;;5078338;28;20211;-71
2021/01/11 18:35:42;;;;;;;43.58;28.80;;;-0.90;90.60;;;;;;5076365;28;20472;-70
2021/01/11 18:38:10;;;;;;;49.05;30.63;;;-1.20;90.40;;;;;;5077777;28;20202;-70
2021/01/11 18:40:36;;;;;;;46.75;28.83;;;-1.30;90.40;;;;;;5073560;28;20231;-70
2021/01/11 18:43:03;;;;;;;35.80;24.60;;;-0.90;90.30;;;;;;5077659;28;20229;-68
2021/01/11 18:45:30;;;;;;;38.80;24.55;;;-1.30;90.40;;;;;;5074580;28;20233;-72
2021/01/11 18:47:57;;;;;;;36.80;24.00;;;-1.30;90.40;;;;;;5077720;28;20491;-71
2021/01/11 18:50:24;;;;;;;37.97;22.55;;;-1.30;90.20;;;;;;5078024;28;20261;-71
2021/01/11 18:52:51;;;;;;;37.78;25.55;;;-1.30;90.30;;;;;;5078835;28;20207;-69
2021/01/11 18:55:19;;;;;;;40.15;23.70;;;-1.30;90.40;;;;;;5078136;28;20539;-70
2021/01/11 18:57:45;;;;;;;34.38;24.02;;;-1.20;90.40;;;;;;5077694;28;20207;-71
2021/01/11 19:00:14;;;;;;;37.10;25.23;;;-1.30;90.30;;;;;;5073111;28;20229;-70
2021/01/11 19:02:42;;;;;;;34.40;24.13;;;-1.40;90.40;;;;;;5077108;28;20478;-70
2021/01/11 19:05:09;;;;;;;38.63;26.10;;;-1.30;90.40;;;;;;5076888;28;20249;-70
2021/01/11 19:07:36;;;;;;;44.25;26.88;;;-1.40;90.40;;;;;;5063878;28;20243;-70
2021/01/11 19:10:19;;;;;;;46.45;27.58;;;-1.50;90.80;;;;;;5076346;28;20199;-69
2021/01/11 19:12:46;;;;;;;45.65;28.55;;;-1.40;90.80;;;;;;5074397;28;20203;-72
2021/01/11 19:15:13;;;;;;;32.72;22.80;;;-1.40;90.50;;;;;;5075671;28;20199;-70
2021/01/11 19:17:40;;;;;;;39.72;25.73;;;-1.40;90.40;;;;;;5076930;28;20202;-69
2021/01/11 19:20:07;;;;;;;41.08;26.88;;;-1.40;90.50;;;;;;5077052;28;20389;-71
2021/01/11 19:22:35;;;;;;;38.25;24.50;;;-1.40;90.60;;;;;;5076729;28;20213;-70
2021/01/11 19:25:02;;;;;;;38.38;24.90;;;-1.30;90.40;;;;;;5077201;28;20208;-70
2021/01/11 19:27:29;;;;;;;34.65;24.27;;;-1.40;90.40;;;;;;5075182;28;21339;-70
2021/01/11 19:29:55;;;;;;;43.72;26.83;;;-1.30;90.30;;;;;;5076783;28;20258;-70
2021/01/11 19:32:22;;;;;;;37.67;25.67;;;-1.40;90.40;;;;;;5076837;28;20438;-69
2021/01/11 19:34:49;;;;;;;38.47;23.95;;;-1.50;90.60;;;;;;5076447;28;20207;-71
2021/01/11 19:37:15;;;;;;;37.60;22.30;;;-1.40;90.60;;;;;;5076140;28;20230;-71
2021/01/11 19:39:42;;;;;;;38.90;23.65;;;-1.40;90.40;;;;;;5076717;28;20280;-70
2021/01/11 19:42:15;;;;;;;36.42;24.95;;;-1.50;90.50;;;;;;5076889;28;20499;-70
2021/01/11 19:44:42;;;;;;;39.90;25.52;;;-1.40;90.50;;;;;;5071152;28;20543;-70
2021/01/11 19:47:12;;;;;;;43.50;25.58;;;-1.40;90.40;;;;;;5076768;28;20203;-70
2021/01/11 19:49:39;;;;;;;38.08;24.10;;;-1.40;90.60;;;;;;5076296;28;20236;-70
2021/01/11 19:52:07;;;;;;;39.13;27.23;;;-1.40;90.40;;;;;;5076737;28;20274;-70
2021/01/11 19:54:34;;;;;;;63.63;34.72;;;-1.50;90.50;;;;;;5071324;28;20211;-71
2021/01/11 19:57:01;;;;;;;105.47;62.88;;;-1.40;90.50;;;;;;5076321;28;20202;-63
2021/01/11 19:59:28;;;;;;;69.95;36.47;;;-1.40;90.60;;;;;;5076475;28;20673;-63
2021/01/11 20:01:55;;;;;;;46.15;27.75;;;-1.50;90.50;;;;;;5072477;28;20198;-62
2021/01/11 20:04:22;;;;;;;84.78;40.20;;;-1.40;90.60;;;;;;5075127;28;20257;-62
2021/01/11 20:06:52;;;;;;;48.65;30.35;;;-1.20;90.30;;;;;;5075756;28;20207;-62
2021/01/11 20:09:21;;;;;;;54.33;30.15;;;-1.10;90.10;;;;;;5069092;28;20225;-62
2021/01/11 20:11:48;;;;;;;35.47;23.55;;;-1.20;90.20;;;;;;5068705;28;20412;-62
2021/01/11 20:14:15;;;;;;;47.78;27.75;;;-1.10;90.10;;;;;;5075717;28;20237;-61
2021/01/11 20:16:42;;;;;;;44.80;27.45;;;-1.10;90.00;;;;;;5075459;28;20233;-62
2021/01/11 20:19:10;;;;;;;49.60;27.70;;;-0.90;89.30;;;;;;5076042;28;20238;-62
2021/01/11 20:21:42;;;;;;;45.10;27.67;;;-0.80;88.60;;;;;;5075734;28;20359;-61
2021/01/11 20:24:16;;;;;;;38.28;24.48;;;-0.80;88.40;;;;;;5075773;28;20210;-62
2021/01/11 20:26:45;;;;;;;42.78;25.02;;;0.00;88.80;;;;;;5075304;28;20210;-63
2021/01/11 20:29:12;;;;;;;39.22;25.55;;;-0.80;87.80;;;;;;5075764;28;20242;-62
2021/01/11 20:31:43;;;;;;;31.05;20.50;;;-0.80;87.80;;;;;;5075648;28;20295;-63
2021/01/11 20:34:10;;;;;;;36.35;23.80;;;-0.80;87.70;;;;;;5063834;28;20448;-62
2021/01/11 20:36:37;;;;;;;46.55;23.73;;;-0.70;87.90;;;;;;5075415;28;20210;-62
2021/01/11 20:39:06;;;;;;;34.55;20.55;;;-0.80;88.30;;;;;;5076487;28;20215;-62
2021/01/11 20:41:44;;;;;;;31.60;20.70;;;-0.70;88.00;;;;;;5075397;28;20203;-62
2021/01/11 20:44:12;;;;;;;41.70;21.27;;;-0.60;87.50;;;;;;5075564;28;20256;-64
2021/01/11 20:46:50;;;;;;;39.17;24.23;;;-0.40;86.80;;;;;;5073769;28;20337;-63
2021/01/11 20:49:17;;;;;;;37.50;23.67;;;-0.40;86.30;;;;;;5076875;28;20467;-62
2021/01/11 20:51:44;;;;;;;36.15;23.90;;;-0.40;85.90;;;;;;5079614;28;20210;-62
2021/01/11 20:54:10;;;;;;;35.00;21.63;;;-0.20;85.90;;;;;;5079959;28;20214;-61
2021/01/11 20:56:44;;;;;;;45.30;22.90;;;-0.30;85.80;;;;;;5079408;28;20207;-62
2021/01/11 20:59:11;;;;;;;41.53;22.73;;;0.50;86.30;;;;;;5079491;28;20226;-63
2021/01/11 21:01:40;;;;;;;33.03;18.83;;;-0.30;85.60;;;;;;5078942;28;20202;-62
2021/01/11 21:04:07;;;;;;;37.03;22.73;;;-0.10;85.70;;;;;;5079572;28;20203;-62
2021/01/11 21:06:34;;;;;;;35.15;22.08;;;-0.20;85.50;;;;;;5079053;28;20206;-62
2021/01/11 21:09:03;;;;;;;34.75;21.55;;;-0.20;85.50;;;;;;5072951;28;20226;-62
2021/01/11 21:11:31;;;;;;;34.42;20.55;;;-0.10;85.60;;;;;;5079628;28;20218;-62
2021/01/11 21:13:58;;;;;;;36.47;23.05;;;0.00;85.00;;;;;;5075651;28;20258;-62
2021/01/11 21:16:26;;;;;;;46.85;26.58;;;0.20;84.60;;;;;;5077925;28;20203;-63
2021/01/11 21:18:56;;;;;;;49.90;28.33;;;0.00;84.60;;;;;;5074024;28;20211;-63
2021/01/11 21:21:27;;;;;;;40.13;24.00;;;1.00;85.10;;;;;;5079659;28;20264;-63
2021/01/11 21:23:55;;;;;;;35.35;21.55;;;-0.10;84.40;;;;;;5079241;28;20203;-62
2021/01/11 21:26:32;;;;;;;38.83;22.77;;;-0.10;84.60;;;;;;5077160;28;20198;-62
2021/01/11 21:29:00;;;;;;;39.97;23.88;;;-0.10;85.30;;;;;;5077809;28;20283;-62
2021/01/11 21:31:28;;;;;;;43.95;23.25;;;1.10;86.50;;;;;;5078857;28;20561;-62
2021/01/11 21:33:56;;;;;;;37.17;20.08;;;-0.40;86.50;;;;;;5078697;28;20203;-62
2021/01/11 21:36:33;;;;;;;34.35;21.50;;;-0.40;86.70;;;;;;5078697;28;20359;-62
2021/01/11 21:39:03;;;;;;;30.40;20.25;;;-0.40;86.90;;;;;;5078508;28;20249;-63
2021/01/11 21:41:32;;;;;;;36.35;21.83;;;-0.40;86.90;;;;;;5075962;28;20505;-62
2021/01/11 21:43:59;;;;;;;41.72;24.23;;;0.40;87.80;;;;;;5065532;28;20211;-63
2021/01/11 21:46:25;;;;;;;35.95;22.00;;;-0.50;87.60;;;;;;5071028;28;20612;-63
2021/01/11 21:48:52;;;;;;;36.50;21.23;;;-0.50;87.60;;;;;;5078447;28;20302;-62
2021/01/11 21:51:19;;;;;;;42.08;22.50;;;-0.30;87.20;;;;;;5079062;28;20641;-63
2021/01/11 21:53:46;;;;;;;37.88;21.50;;;-0.10;86.10;;;;;;5077357;28;20211;-62
2021/01/11 21:56:17;;;;;;;31.60;20.85;;;-0.20;85.60;;;;;;5076736;28;20740;-63
2021/01/11 21:58:45;;;;;;;34.38;20.65;;;-0.20;86.40;;;;;;5077154;28;20256;-63
2021/01/11 22:01:12;;;;;;;31.75;21.15;;;-0.20;86.60;;;;;;5072413;28;20516;-61
2021/01/11 22:03:40;;;;;;;39.55;24.98;;;-0.20;86.30;;;;;;5078248;28;20230;-62
2021/01/11 22:06:08;;;;;;;38.45;23.13;;;-0.20;86.00;;;;;;5078649;28;20202;-62
2021/01/11 22:08:36;;;;;;;37.78;23.25;;;-0.20;86.40;;;;;;5072454;28;20799;-63
2021/01/11 22:11:03;;;;;;;44.15;25.45;;;-0.30;86.40;;;;;;5077533;28;20647;-62
2021/01/11 22:13:34;;;;;;;45.67;23.55;;;-0.30;86.70;;;;;;5076822;28;20440;-63
2021/01/11 22:16:07;;;;;;;40.78;22.92;;;-0.30;87.40;;;;;;5078385;28;20463;-62
2021/01/11 22:18:35;;;;;;;35.45;22.40;;;0.20;87.00;;;;;;5077861;28;20198;-63
2021/01/11 22:21:02;;;;;;;41.80;23.60;;;-0.30;86.50;;;;;;5077910;28;20192;-62
2021/01/11 22:23:30;;;;;;;43.00;23.15;;;-0.40;86.50;;;;;;5077739;28;20199;-62
2021/01/11 22:25:58;;;;;;;39.70;22.65;;;-0.40;86.90;;;;;;5078308;28;20207;-62
2021/01/11 22:28:26;;;;;;;47.50;24.20;;;-0.50;87.10;;;;;;5077619;28;20323;-62
2021/01/11 22:30:55;;;;;;;44.90;22.48;;;-0.40;86.80;;;;;;5077882;28;20207;-62
2021/01/11 22:33:22;;;;;;;39.65;24.35;;;-0.40;86.50;;;;;;5076791;28;20226;-62
2021/01/11 22:35:50;;;;;;;37.22;22.58;;;-0.50;87.00;;;;;;5077070;28;20717;-64
2021/01/11 22:38:19;;;;;;;37.28;21.58;;;-0.50;86.70;;;;;;5077032;28;20214;-61
2021/01/11 22:40:45;;;;;;;38.10;23.17;;;-0.40;86.40;;;;;;5075620;28;20264;-62
2021/01/11 22:43:13;;;;;;;42.03;21.88;;;-0.40;86.70;;;;;;5076658;28;20226;-63
2021/01/11 22:45:39;;;;;;;45.45;24.23;;;0.60;87.60;;;;;;5074449;28;20202;-63
2021/01/11 22:48:06;;;;;;;46.78;23.00;;;-0.40;87.00;;;;;;5075919;28;20203;-63
2021/01/11 22:50:36;;;;;;;44.63;22.88;;;-0.40;87.00;;;;;;5076090;28;20321;-62
2021/01/11 22:53:02;;;;;;;38.00;23.10;;;-0.50;87.00;;;;;;5073432;28;20207;-62
2021/01/11 22:55:38;;;;;;;34.97;20.40;;;-0.40;86.60;;;;;;5076001;28;20207;-62
2021/01/11 22:58:07;;;;;;;44.78;24.38;;;-0.40;86.30;;;;;;5076167;28;20547;-61
2021/01/11 23:00:34;;;;;;;45.28;24.70;;;-0.30;86.10;;;;;;5069759;28;20219;-63
2021/01/11 23:03:00;;;;;;;45.15;23.40;;;-0.30;86.30;;;;;;5061081;28;20208;-62
2021/01/11 23:05:27;;;;;;;40.88;22.15;;;1.00;87.20;;;;;;5060287;28;20390;-61
2021/01/11 23:07:54;;;;;;;37.40;21.30;;;-0.40;86.70;;;;;;5058150;28;20537;-61
2021/01/11 23:10:26;;;;;;;41.20;22.02;;;-0.40;86.50;;;;;;5074837;28;20266;-62
2021/01/11 23:12:53;;;;;;;44.17;24.52;;;-1.60;85.60;;;;;;5058783;28;20492;-61
2021/01/11 23:15:20;;;;;;;41.08;21.65;;;-0.30;86.40;;;;;;5062401;28;20206;-62
2021/01/11 23:17:49;;;;;;;42.83;20.90;;;-0.20;86.30;;;;;;5052281;28;21347;-62
2021/01/11 23:20:18;;;;;;;38.10;20.55;;;-0.40;86.10;;;;;;5063918;28;20534;-62
2021/01/11 23:22:50;;;;;;;38.38;23.08;;;-0.40;86.50;;;;;;5073771;28;20214;-63
2021/01/11 23:25:20;;;;;;;39.58;24.33;;;-0.30;86.40;;;;;;5076196;28;20669;-63
2021/01/11 23:27:47;;;;;;;38.95;21.08;;;-0.20;85.90;;;;;;5076043;28;20234;-63
2021/01/11 23:30:17;;;;;;;34.40;19.25;;;-0.30;85.80;;;;;;5076237;28;20402;-63
2021/01/11 23:32:44;;;;;;;31.45;21.38;;;-0.20;85.80;;;;;;5076368;28;20207;-62
2021/01/11 23:35:19;;;;;;;40.47;22.90;;;-0.20;85.30;;;;;;5076590;28;20207;-62
2021/01/11 23:37:45;;;;;;;35.80;21.10;;;0.80;85.70;;;;;;5076450;28;20202;-62
2021/01/11 23:40:13;;;;;;;31.60;20.05;;;1.20;85.80;;;;;;5076663;28;20207;-63
2021/01/11 23:42:41;;;;;;;30.50;19.00;;;-0.10;85.00;;;;;;5076098;28;20238;-62
2021/01/11 23:45:07;;;;;;;30.95;20.17;;;-0.20;85.20;;;;;;5074302;28;20218;-62
2021/01/11 23:47:35;;;;;;;34.75;20.90;;;-0.20;85.30;;;;;;5074647;28;20674;-62
2021/01/11 23:50:06;;;;;;;30.65;19.23;;;-0.20;85.10;;;;;;5076374;28;20230;-62
2021/01/11 23:52:32;;;;;;;35.83;19.50;;;-0.20;85.00;;;;;;5076051;28;20539;-62
2021/01/11 23:54:59;;;;;;;33.67;18.88;;;-0.10;85.00;;;;;;5076095;28;20230;-62
2021/01/11 23:57:26;;;;;;;37.78;20.73;;;0.00;85.10;;;;;;5076222;28;20254;-62
2021/01/11 23:59:52;;;;;;;29.60;18.50;;;-0.20;85.20;;;;;;5075945;28;20238;-63
